createdAt,value
2023-04-21T00:02:50.109Z,36.10
2023-04-21T00:07:14.819Z,37.97
2023-04-21T00:11:37.331Z,36.05
2023-04-21T00:15:59.237Z,42.15
2023-04-21T00:20:21.133Z,39.85
2023-04-21T00:24:43.057Z,37.13
2023-04-21T00:29:04.916Z,41.85
2023-04-21T00:33:27.017Z,41.10
2023-04-21T00:37:51.083Z,44.17
2023-04-21T00:42:17.354Z,41.30
2023-04-21T00:46:39.690Z,37.17
2023-04-21T00:51:02.298Z,47.80
2023-04-21T00:55:25.551Z,47.95
2023-04-21T00:59:47.631Z,39.42
2023-04-21T01:04:10.655Z,51.83
2023-04-21T01:08:33.295Z,44.35
2023-04-21T01:12:55.621Z,45.35
2023-04-21T01:17:19.112Z,44.97
2023-04-21T01:21:43.361Z,43.85
2023-04-21T01:26:06.574Z,52.53
2023-04-21T01:30:31.655Z,47.65
2023-04-21T01:34:55.877Z,47.65
2023-04-21T01:39:17.984Z,44.83
2023-04-21T01:43:40.474Z,42.25
2023-04-21T01:48:03.285Z,43.95
2023-04-21T01:52:25.398Z,45.08
2023-04-21T01:56:49.454Z,43.53
2023-04-21T02:01:12.379Z,45.33
2023-04-21T02:05:34.773Z,42.83
2023-04-21T02:09:56.964Z,42.83
2023-04-21T02:14:19.048Z,40.05
2023-04-21T02:18:41.805Z,36.45
2023-04-21T02:23:03.858Z,35.42
2023-04-21T02:27:26.018Z,36.28
2023-04-21T02:31:59.317Z,33.35
2023-04-21T02:36:26.466Z,34.13
2023-04-21T02:40:52.437Z,31.45
2023-04-21T02:45:14.647Z,34.83
2023-04-21T02:49:42.361Z,30.17
2023-04-21T02:54:04.689Z,34.97
2023-04-21T02:58:26.762Z,33.10
2023-04-21T03:02:49.285Z,29.00
2023-04-21T03:07:14.986Z,27.92
2023-04-21T03:11:37.336Z,25.95
2023-04-21T03:15:59.367Z,34.72
2023-04-21T03:20:21.903Z,23.02
2023-04-21T03:24:43.905Z,21.35
2023-04-21T03:29:06.445Z,24.38
2023-04-21T03:33:28.549Z,24.90
2023-04-21T03:37:50.669Z,28.33
2023-04-21T03:42:12.826Z,23.73
2023-04-21T03:46:35.029Z,28.50
2023-04-21T03:50:56.887Z,29.05
2023-04-21T03:55:19.372Z,25.52
2023-04-21T03:59:41.867Z,26.42
2023-04-21T04:04:04.228Z,27.30
2023-04-21T04:08:26.530Z,27.75
2023-04-21T04:12:48.833Z,27.52
2023-04-21T04:17:13.116Z,26.98
2023-04-21T04:21:35.450Z,22.85
2023-04-21T04:26:01.898Z,22.83
2023-04-21T04:30:27.048Z,21.88
2023-04-21T04:34:49.102Z,22.30
2023-04-21T04:39:12.509Z,19.67
2023-04-21T04:43:36.999Z,22.75
2023-04-21T04:47:59.482Z,21.30
2023-04-21T04:52:21.745Z,15.82
2023-04-21T04:56:43.704Z,15.05
2023-04-21T05:01:16.799Z,19.70
2023-04-21T05:05:38.895Z,17.98
2023-04-21T05:10:02.606Z,16.17
2023-04-21T05:14:24.481Z,18.00
2023-04-21T05:18:46.262Z,12.02
2023-04-21T05:23:08.913Z,15.55
2023-04-21T05:27:31.633Z,18.20
2023-04-21T05:31:53.895Z,18.02
2023-04-21T05:36:15.807Z,18.45
2023-04-21T05:40:37.931Z,14.65
2023-04-21T05:44:59.978Z,14.13
2023-04-21T05:49:22.006Z,10.45
2023-04-21T05:53:45.950Z,12.15
2023-04-21T05:58:07.717Z,20.65
2023-04-21T06:02:29.842Z,17.92
2023-04-21T06:06:52.008Z,12.75
2023-04-21T06:11:14.237Z,15.20
2023-04-21T06:15:36.473Z,12.68
2023-04-21T06:19:58.542Z,17.10
2023-04-21T06:24:25.663Z,11.70
2023-04-21T06:28:48.183Z,15.93
2023-04-21T06:33:10.619Z,17.80
2023-04-21T06:37:33.064Z,16.33
2023-04-21T06:41:55.321Z,11.57
2023-04-21T06:46:18.531Z,11.70
2023-04-21T06:50:41.181Z,15.23
2023-04-21T06:55:03.504Z,15.85
2023-04-21T06:59:25.749Z,16.08
2023-04-21T07:03:47.969Z,23.42
2023-04-21T07:08:09.945Z,13.30
2023-04-21T07:12:31.905Z,12.20
2023-04-21T07:16:55.216Z,10.75
2023-04-21T07:21:17.472Z,15.90
2023-04-21T07:25:39.346Z,8.80
2023-04-21T07:30:01.195Z,11.05
2023-04-21T07:34:23.306Z,14.63
2023-04-21T07:38:45.607Z,23.88
2023-04-21T07:43:07.533Z,12.65
2023-04-21T07:47:30.146Z,17.20
2023-04-21T07:51:52.255Z,9.00
2023-04-21T07:56:14.364Z,12.88
2023-04-21T08:00:37.809Z,12.52
2023-04-21T08:04:59.917Z,12.05
2023-04-21T08:09:22.098Z,11.43
2023-04-21T08:13:44.068Z,8.68
2023-04-21T08:18:06.537Z,11.05
2023-04-21T08:22:28.883Z,11.45
2023-04-21T08:26:51.054Z,12.88
2023-04-21T08:31:13.330Z,9.82
2023-04-21T08:35:36.248Z,15.73
2023-04-21T08:39:58.447Z,9.00
2023-04-21T08:44:21.897Z,9.00
2023-04-21T08:48:43.983Z,15.57
2023-04-21T08:53:06.548Z,10.57
2023-04-21T08:57:28.763Z,12.27
2023-04-21T09:02:17.519Z,11.07
2023-04-21T09:06:46.537Z,8.30
2023-04-21T09:11:08.848Z,13.63
2023-04-21T09:15:38.218Z,14.13
2023-04-21T09:20:16.961Z,12.95
2023-04-21T09:24:47.286Z,9.65
2023-04-21T09:29:09.838Z,11.07
2023-04-21T09:33:45.652Z,10.98
2023-04-21T09:38:17.046Z,8.60
2023-04-21T09:42:39.779Z,11.20
2023-04-21T09:47:03.886Z,13.05
2023-04-21T09:51:48.535Z,12.85
2023-04-21T09:56:16.048Z,10.70
2023-04-21T10:00:40.091Z,11.23
2023-04-21T10:05:03.160Z,13.85
2023-04-21T10:09:33.694Z,10.55
2023-04-21T10:13:56.148Z,10.82
2023-04-21T10:18:23.568Z,11.48
2023-04-21T10:22:45.666Z,12.75
2023-04-21T10:27:12.200Z,12.32
2023-04-21T10:31:35.112Z,9.02
2023-04-21T10:36:02.950Z,12.50
2023-04-21T10:40:43.082Z,12.25
2023-04-21T10:45:09.458Z,16.42
2023-04-21T10:49:31.582Z,11.65
2023-04-21T10:53:53.807Z,9.82
2023-04-21T10:58:16.835Z,9.95
2023-04-21T11:02:41.219Z,9.60
2023-04-21T11:07:14.424Z,15.68
2023-04-21T11:11:37.347Z,15.07
2023-04-21T11:16:07.328Z,11.00
2023-04-21T11:20:31.933Z,12.20
2023-04-21T11:24:56.340Z,10.73
2023-04-21T11:29:18.706Z,10.23
2023-04-21T11:33:40.841Z,9.23
2023-04-21T11:38:06.644Z,12.40
2023-04-21T11:42:29.321Z,8.73
2023-04-21T11:46:51.588Z,13.57
2023-04-21T11:51:21.364Z,14.63
2023-04-21T11:55:46.225Z,9.90
2023-04-21T12:00:12.126Z,10.70
2023-04-21T12:04:34.827Z,8.18
2023-04-21T12:09:03.539Z,9.55
2023-04-21T12:13:27.986Z,11.52
2023-04-21T12:17:53.033Z,9.40
2023-04-21T12:22:23.162Z,8.73
2023-04-21T12:26:45.177Z,11.43
2023-04-21T12:31:07.604Z,11.63
2023-04-21T12:35:29.527Z,12.07
2023-04-21T12:39:51.768Z,7.60
2023-04-21T12:44:14.951Z,9.48
2023-04-21T12:48:37.127Z,9.60
2023-04-21T12:52:59.763Z,8.48
2023-04-21T12:57:22.018Z,8.00
2023-04-21T13:01:44.257Z,9.65
2023-04-21T13:06:06.948Z,7.85
2023-04-21T13:10:29.563Z,10.32
2023-04-21T13:14:51.520Z,10.90
2023-04-21T13:19:13.259Z,11.52
2023-04-21T13:23:35.434Z,11.63
2023-04-21T13:27:58.406Z,13.57
2023-04-21T13:32:22.803Z,7.80
2023-04-21T13:36:45.427Z,11.25
2023-04-21T13:41:08.131Z,12.18
2023-04-21T13:45:30.388Z,9.60
2023-04-21T13:49:52.593Z,7.68
2023-04-21T13:54:14.745Z,8.32
2023-04-21T13:58:36.631Z,9.38
2023-04-21T14:02:58.853Z,10.43
2023-04-21T14:07:23.490Z,9.90
2023-04-21T14:11:47.766Z,5.82
2023-04-21T14:16:09.901Z,15.38
2023-04-21T14:20:32.073Z,11.07
2023-04-21T14:24:54.448Z,10.00
2023-04-21T14:29:16.380Z,8.45
2023-04-21T14:33:38.942Z,8.35
2023-04-21T14:38:01.667Z,7.65
2023-04-21T14:42:23.646Z,7.88
2023-04-21T14:46:53.712Z,13.25
2023-04-21T14:51:28.402Z,11.00
2023-04-21T14:55:51.870Z,11.10
2023-04-21T15:00:15.621Z,10.23
2023-04-21T15:04:37.846Z,5.80
2023-04-21T15:09:00.226Z,10.43
2023-04-21T15:13:22.338Z,9.88
2023-04-21T15:17:44.687Z,9.02
2023-04-21T15:22:06.866Z,9.07
2023-04-21T15:26:30.562Z,6.95
2023-04-21T15:30:52.944Z,9.20
2023-04-21T15:35:15.244Z,8.15
2023-04-21T15:39:37.306Z,13.73
2023-04-21T15:44:00.841Z,14.55
2023-04-21T15:48:23.662Z,10.38
2023-04-21T15:52:45.985Z,9.75
2023-04-21T15:57:08.231Z,11.00
2023-04-21T16:01:30.530Z,12.45
2023-04-21T16:05:53.154Z,8.40
2023-04-21T16:10:15.247Z,12.80
2023-04-21T16:14:53.594Z,8.77
2023-04-21T16:19:17.796Z,6.68
2023-04-21T16:23:40.513Z,8.20
2023-04-21T16:28:02.739Z,8.93
2023-04-21T16:32:25.113Z,8.82
2023-04-21T16:36:47.597Z,8.73
2023-04-21T16:41:10.142Z,12.43
2023-04-21T16:45:32.703Z,10.38
2023-04-21T16:49:54.983Z,11.52
2023-04-21T16:54:16.926Z,9.82
2023-04-21T16:58:39.654Z,12.75
2023-04-21T17:03:01.615Z,11.10
2023-04-21T17:07:23.734Z,9.05
2023-04-21T17:11:46.141Z,13.02
2023-04-21T17:16:08.333Z,18.67
2023-04-21T17:20:30.936Z,5.75
2023-04-21T17:24:54.060Z,12.45
2023-04-21T17:29:16.235Z,11.57
2023-04-21T17:33:38.296Z,13.15
2023-04-21T17:38:00.849Z,10.02
2023-04-21T17:42:22.969Z,15.00
2023-04-21T17:46:45.028Z,13.50
2023-04-21T17:51:07.418Z,10.43
2023-04-21T17:55:29.700Z,14.43
2023-04-21T17:59:51.884Z,9.45
2023-04-21T18:04:15.787Z,9.63
2023-04-21T18:08:38.672Z,8.68
2023-04-21T18:13:00.991Z,11.23
2023-04-21T18:17:23.503Z,12.40
2023-04-21T18:21:46.099Z,11.85
2023-04-21T18:26:08.631Z,14.30
2023-04-21T18:30:31.033Z,14.32
2023-04-21T18:34:53.063Z,10.85
2023-04-21T18:39:15.260Z,12.70
2023-04-21T18:43:37.744Z,12.38
2023-04-21T18:48:00.161Z,17.92
2023-04-21T18:52:23.489Z,14.05
2023-04-21T18:56:46.167Z,15.45
2023-04-21T19:01:08.227Z,11.85
2023-04-21T19:05:31.860Z,15.35
2023-04-21T19:09:54.025Z,16.73
2023-04-21T19:14:16.076Z,9.57
2023-04-21T19:18:38.172Z,16.00
2023-04-21T19:23:00.637Z,13.65
2023-04-21T19:27:23.521Z,10.85
2023-04-21T19:31:46.858Z,12.77
2023-04-21T19:36:09.734Z,22.58
2023-04-21T19:40:32.394Z,11.55
2023-04-21T19:44:54.622Z,14.77
2023-04-21T19:49:17.161Z,14.77
2023-04-21T19:53:39.199Z,17.75
2023-04-21T19:58:01.176Z,10.68
2023-04-21T20:02:23.579Z,11.70
2023-04-21T20:06:46.001Z,19.33
2023-04-21T20:11:08.755Z,13.95
2023-04-21T20:15:30.879Z,14.80
2023-04-21T20:19:54.150Z,16.17
2023-04-21T20:24:16.337Z,8.50
2023-04-21T20:28:38.595Z,16.33
2023-04-21T20:33:00.770Z,12.85
2023-04-21T20:37:23.444Z,10.02
2023-04-21T20:41:45.908Z,14.13
2023-04-21T20:46:09.019Z,11.60
2023-04-21T20:50:31.179Z,23.13
2023-04-21T20:54:53.380Z,16.30
2023-04-21T20:59:15.276Z,13.95
2023-04-21T21:03:37.564Z,16.58
2023-04-21T21:08:00.312Z,17.58
2023-04-21T21:12:22.681Z,15.20
2023-04-21T21:16:45.067Z,14.95
2023-04-21T21:21:07.307Z,14.25
2023-04-21T21:25:29.278Z,12.10
2023-04-21T21:29:51.484Z,19.88
2023-04-21T21:34:13.338Z,19.67
2023-04-21T21:38:35.708Z,21.60
2023-04-21T21:42:57.663Z,19.63
2023-04-21T21:47:19.937Z,20.38
2023-04-21T21:51:42.436Z,13.63
2023-04-21T21:56:05.326Z,17.10
2023-04-21T22:00:27.543Z,23.93
2023-04-21T22:04:49.739Z,16.23
2023-04-21T22:09:12.217Z,18.23
2023-04-21T22:13:34.099Z,19.17
2023-04-21T22:17:56.285Z,19.08
2023-04-21T22:22:18.489Z,11.32
2023-04-21T22:26:40.935Z,13.88
2023-04-21T22:31:02.901Z,18.75
2023-04-21T22:35:27.617Z,15.15
2023-04-21T22:39:52.423Z,14.52
2023-04-21T22:44:14.720Z,13.70
2023-04-21T22:48:38.394Z,22.08
2023-04-21T22:53:00.517Z,13.93
2023-04-21T22:57:22.667Z,15.90
2023-04-21T23:01:44.663Z,17.33
2023-04-21T23:06:07.079Z,19.75
2023-04-21T23:10:30.711Z,20.08
2023-04-21T23:14:53.061Z,12.48
2023-04-21T23:19:15.037Z,16.88
2023-04-21T23:23:37.218Z,12.90
2023-04-21T23:27:59.198Z,13.20
2023-04-21T23:32:21.483Z,15.60
2023-04-21T23:36:43.476Z,15.43
2023-04-21T23:41:05.627Z,16.20
2023-04-21T23:45:27.724Z,15.93
2023-04-21T23:49:49.956Z,15.50
2023-04-21T23:54:12.079Z,12.23
2023-04-21T23:58:33.896Z,15.30
